createdAt,value
2022-12-19T00:02:07.449Z,103198.83
2022-12-19T00:06:06.528Z,103189.71
2022-12-19T00:10:06.348Z,103184.10
2022-12-19T00:14:05.987Z,103172.89
2022-12-19T00:18:18.711Z,103179.52
2022-12-19T00:22:18.085Z,103183.59
2022-12-19T00:26:22.927Z,103185.83
2022-12-19T00:30:22.194Z,103177.33
2022-12-19T00:34:22.498Z,103179.27
2022-12-19T00:38:21.330Z,103173.80
2022-12-19T00:42:20.875Z,103178.98
2022-12-19T00:46:21.452Z,103183.54
2022-12-19T00:50:20.608Z,103178.61
2022-12-19T00:54:20.047Z,103178.23
2022-12-19T00:58:22.346Z,103169.34
2022-12-19T01:01:57.802Z,103166.91
2022-12-19T01:05:57.026Z,103167.64
2022-12-19T01:09:56.299Z,103178.78
2022-12-19T01:13:55.588Z,103171.70
2022-12-19T01:17:56.375Z,103167.85
2022-12-19T01:21:32.487Z,103154.36
2022-12-19T01:25:35.199Z,103154.61
2022-12-19T01:29:36.675Z,103159.73
2022-12-19T01:33:42.234Z,103150.45
2022-12-19T01:37:43.575Z,103152.55
2022-12-19T01:41:42.482Z,103143.34
2022-12-19T01:45:45.905Z,103138.88
2022-12-19T01:49:45.522Z,103141.35
2022-12-19T01:53:49.780Z,103138.46
2022-12-19T01:57:49.509Z,103130.73
2022-12-19T02:01:51.611Z,103139.69
2022-12-19T02:05:54.641Z,103136.39
2022-12-19T02:09:57.395Z,103132.69
2022-12-19T02:14:02.365Z,103134.16
2022-12-19T02:18:04.616Z,103123.12
2022-12-19T02:22:21.973Z,103117.90
2022-12-19T02:26:46.698Z,103107.87
2022-12-19T02:31:05.381Z,103102.57
2022-12-19T02:35:52.807Z,103105.13
2022-12-19T02:39:12.432Z,103102.23
2022-12-19T02:43:13.139Z,103095.78
2022-12-19T02:47:14.821Z,103091.55
2022-12-19T02:51:14.316Z,103088.66
2022-12-19T02:55:30.648Z,103084.10
2022-12-19T02:59:49.839Z,103077.94
2022-12-19T03:03:53.754Z,103075.00
2022-12-19T03:08:02.041Z,103068.52
2022-12-19T03:12:14.087Z,103067.58
2022-12-19T03:16:16.274Z,103066.10
2022-12-19T03:20:53.768Z,103059.11
2022-12-19T03:23:54.963Z,103051.50
2022-12-19T03:28:11.877Z,103041.67
2022-12-19T03:32:12.640Z,103042.27
2022-12-19T03:36:16.181Z,103041.84
2022-12-19T03:40:20.453Z,103045.69
2022-12-19T03:43:53.437Z,103045.14
2022-12-19T03:47:57.700Z,103041.61
2022-12-19T03:52:15.380Z,103036.67
2022-12-19T03:56:31.425Z,103031.37
2022-12-19T04:00:34.701Z,103033.04
2022-12-19T04:04:36.486Z,103024.16
2022-12-19T04:08:36.324Z,103015.85
2022-12-19T04:12:39.144Z,103012.06
2022-12-19T04:16:51.608Z,103004.09
2022-12-19T04:21:17.969Z,103010.73
2022-12-19T04:24:32.779Z,103005.79
2022-12-19T04:28:36.770Z,103012.64
2022-12-19T04:32:36.565Z,103003.86
2022-12-19T04:36:35.597Z,102990.36
2022-12-19T04:40:40.889Z,102992.55
2022-12-19T04:44:40.934Z,102990.80
2022-12-19T04:48:39.845Z,102982.67
2022-12-19T04:52:58.097Z,102970.36
2022-12-19T04:56:16.917Z,102974.09
2022-12-19T05:00:17.710Z,102970.99
2022-12-19T05:04:16.588Z,102971.57
2022-12-19T05:08:15.975Z,102963.88
2022-12-19T05:12:15.748Z,102957.27
2022-12-19T05:16:16.154Z,102956.44
2022-12-19T05:20:15.367Z,102952.71
2022-12-19T05:24:18.035Z,102949.73
2022-12-19T05:27:51.923Z,102949.46
2022-12-19T05:31:50.877Z,102951.27
2022-12-19T05:35:49.949Z,102941.44
2022-12-19T05:39:48.937Z,102928.97
2022-12-19T05:43:52.276Z,102932.45
2022-12-19T05:47:51.362Z,102918.52
2022-12-19T05:51:50.292Z,102910.44
2022-12-19T05:55:49.075Z,102904.16
2022-12-19T05:59:48.075Z,102899.23
2022-12-19T06:03:47.438Z,102899.27
2022-12-19T06:07:48.126Z,102892.06
2022-12-19T06:11:26.386Z,102884.55
2022-12-19T06:15:30.119Z,102881.13
2022-12-19T06:19:07.428Z,102878.68
2022-12-19T06:27:56.478Z,102876.84
2022-12-19T06:31:56.010Z,102883.39
2022-12-19T06:36:02.782Z,102893.75
2022-12-19T06:40:01.875Z,102887.94
2022-12-19T06:44:01.858Z,102898.94
2022-12-19T06:48:01.369Z,102897.75
2022-12-19T06:52:08.911Z,102895.81
2022-12-19T06:55:38.639Z,102885.86
2022-12-19T06:59:38.192Z,102884.60
2022-12-19T07:03:40.456Z,102884.61
2022-12-19T07:07:53.819Z,102878.79
2022-12-19T07:11:53.032Z,102871.10
2022-12-19T07:15:52.841Z,102864.85
2022-12-19T07:19:54.418Z,102856.36
2022-12-19T07:23:55.656Z,102851.30
2022-12-19T07:27:35.602Z,102839.76
2022-12-19T07:31:35.372Z,102833.34
2022-12-19T07:35:34.819Z,102828.82
2022-12-19T07:39:33.991Z,102819.56
2022-12-19T07:43:33.305Z,102815.54
2022-12-19T07:47:33.857Z,102803.96
2022-12-19T07:51:34.010Z,102801.88
2022-12-19T07:55:33.751Z,102796.09
2022-12-19T07:59:38.789Z,102788.90
2022-12-19T08:03:38.993Z,102782.89
2022-12-19T08:07:38.753Z,102774.04
2022-12-19T08:11:38.419Z,102757.58
2022-12-19T08:15:38.596Z,102752.63
2022-12-19T08:19:38.487Z,102739.98
2022-12-19T08:23:40.995Z,102736.56
2022-12-19T08:27:41.575Z,102741.85
2022-12-19T08:31:42.163Z,102735.23
2022-12-19T08:35:41.527Z,102725.88
2022-12-19T08:39:41.587Z,102725.17
2022-12-19T08:43:42.188Z,102718.19
2022-12-19T08:47:41.992Z,102707.64
2022-12-19T08:51:41.827Z,102695.70
2022-12-19T08:55:41.377Z,102682.07
2022-12-19T08:59:41.166Z,102670.36
2022-12-19T09:03:50.205Z,102654.09
2022-12-19T09:08:01.980Z,102641.15
2022-12-19T09:12:01.201Z,102635.31
2022-12-19T09:16:05.016Z,102630.52
2022-12-19T09:20:05.370Z,102617.52
2022-12-19T09:24:07.963Z,102619.76
2022-12-19T09:32:27.089Z,102609.81
2022-12-19T09:36:26.422Z,102596.77
2022-12-19T09:40:27.741Z,102572.17
2022-12-19T09:44:37.012Z,102561.50
2022-12-19T09:48:36.749Z,102561.09
2022-12-19T09:52:37.603Z,102564.45
2022-12-19T09:56:45.908Z,102554.23
2022-12-19T10:00:56.018Z,102549.27
2022-12-19T10:05:59.748Z,102554.14
2022-12-19T10:11:16.321Z,102530.77
2022-12-19T10:14:31.728Z,102528.14
2022-12-19T10:18:32.530Z,102516.95
2022-12-19T10:22:50.901Z,102504.95
2022-12-19T10:26:55.057Z,102500.04
2022-12-19T10:30:58.235Z,102497.42
2022-12-19T10:34:58.625Z,102485.89
2022-12-19T10:39:09.197Z,102482.50
2022-12-19T10:43:22.918Z,102479.11
2022-12-19T10:47:30.381Z,102472.33
2022-12-19T10:51:12.124Z,102471.27
2022-12-19T10:55:30.593Z,102457.52
2022-12-19T10:59:30.284Z,102439.55
2022-12-19T11:03:29.726Z,102439.41
2022-12-19T11:07:29.455Z,102429.98
2022-12-19T11:14:27.454Z,102425.09
2022-12-19T11:21:55.196Z,102416.76
2022-12-19T11:29:39.757Z,102411.55
2022-12-19T11:30:48.178Z,102409.21
2022-12-19T11:33:53.584Z,102385.39
2022-12-19T11:37:56.005Z,102372.52
2022-12-19T11:42:02.445Z,102371.63
2022-12-19T11:46:22.227Z,102365.41
2022-12-19T11:50:24.923Z,102344.92
2022-12-19T11:54:24.382Z,102334.68
2022-12-19T11:58:25.419Z,102323.02
2022-12-19T12:02:50.645Z,102302.80
2022-12-19T12:06:52.264Z,102294.23
2022-12-19T12:17:41.910Z,102290.45
2022-12-19T12:19:41.035Z,102271.54
2022-12-19T12:24:58.859Z,102291.11
2022-12-19T12:31:46.586Z,102252.45
2022-12-19T12:31:56.043Z,102257.01
2022-12-19T12:35:16.313Z,102247.48
2022-12-19T12:42:04.113Z,102231.83
2022-12-19T12:46:04.853Z,102220.67
2022-12-19T12:50:06.727Z,102212.33
2022-12-19T12:54:08.023Z,102214.15
2022-12-19T12:58:40.439Z,102213.48
2022-12-19T13:02:40.500Z,102208.35
2022-12-19T13:06:41.219Z,102194.70
2022-12-19T13:11:04.329Z,102180.33
2022-12-19T13:14:40.961Z,102171.09
2022-12-19T13:18:41.260Z,102172.22
2022-12-19T13:22:41.898Z,102167.05
2022-12-19T13:26:46.738Z,102163.03
2022-12-19T13:31:21.000Z,102166.52
2022-12-19T13:36:31.800Z,102155.33
2022-12-19T13:39:55.161Z,102165.45
2022-12-19T13:44:02.533Z,102148.94
2022-12-19T13:48:03.525Z,102146.06
2022-12-19T13:52:05.351Z,102147.19
2022-12-19T13:56:06.987Z,102139.84
2022-12-19T14:00:29.989Z,102122.46
2022-12-19T14:04:31.147Z,102117.89
2022-12-19T14:08:30.267Z,102115.96
2022-12-19T14:13:40.097Z,102110.04
2022-12-19T14:17:13.445Z,102103.52
2022-12-19T14:22:11.105Z,102095.55
2022-12-19T14:28:21.635Z,102080.80
2022-12-19T14:30:27.770Z,102069.27
2022-12-19T14:39:24.521Z,102068.02
2022-12-19T14:43:59.031Z,102075.96
2022-12-19T14:54:18.066Z,102075.15
2022-12-19T14:54:33.731Z,102076.67
2022-12-19T14:56:14.160Z,102068.77
2022-12-19T15:01:07.515Z,102060.19
2022-12-19T15:04:51.083Z,102052.46
2022-12-19T15:11:00.685Z,102045.98
2022-12-19T15:14:53.928Z,102039.04
2022-12-19T15:17:21.696Z,102034.15
2022-12-19T15:21:21.220Z,102024.12
2022-12-19T15:26:02.677Z,102017.64
2022-12-19T15:29:54.535Z,102006.65
2022-12-19T15:34:32.245Z,102000.80
2022-12-19T15:38:13.117Z,101987.84
2022-12-19T15:42:20.948Z,101971.38
2022-12-19T15:46:20.959Z,101979.70
2022-12-19T15:50:22.506Z,101988.20
2022-12-19T15:54:47.599Z,101984.66
2022-12-19T16:09:23.305Z,101972.87
2022-12-19T16:12:26.887Z,101960.92
2022-12-19T16:16:26.791Z,101953.77
2022-12-19T16:20:27.750Z,101948.29
2022-12-19T16:24:26.683Z,101956.14
2022-12-19T16:28:28.703Z,101954.87
2022-12-19T16:32:29.181Z,101951.77
2022-12-19T16:36:28.011Z,101953.89
2022-12-19T16:40:40.709Z,101956.02
2022-12-19T16:49:49.312Z,101933.34
2022-12-19T16:54:09.233Z,101929.93
2022-12-19T16:57:26.692Z,101930.54
2022-12-19T17:01:39.945Z,101924.30
2022-12-19T17:05:39.176Z,101913.12
2022-12-19T17:09:38.935Z,101905.77
2022-12-19T17:13:38.211Z,101902.23
2022-12-19T17:17:37.618Z,101905.98
2022-12-19T17:21:37.249Z,101893.60
2022-12-19T17:25:38.949Z,101891.63
2022-12-19T17:29:38.504Z,101889.53
2022-12-19T17:33:39.889Z,101882.58
2022-12-19T17:37:39.194Z,101871.92
2022-12-19T17:41:38.417Z,101866.54
2022-12-19T17:45:38.528Z,101850.90
2022-12-19T17:49:38.712Z,101846.86
2022-12-19T17:53:37.920Z,101841.89
2022-12-19T17:57:51.867Z,101834.08
2022-12-19T18:01:29.810Z,101840.92
2022-12-19T18:05:32.179Z,101826.41
2022-12-19T18:09:31.641Z,101809.74
2022-12-19T18:13:31.546Z,101797.83
2022-12-19T18:17:31.408Z,101807.97
2022-12-19T18:21:30.700Z,101810.08
2022-12-19T18:29:45.219Z,101792.91
2022-12-19T18:33:47.199Z,101786.45
2022-12-19T18:37:47.146Z,101774.26
2022-12-19T18:41:46.292Z,101766.71
2022-12-19T18:45:47.714Z,101761.59
2022-12-19T18:50:01.189Z,101743.66
2022-12-19T18:54:01.092Z,101743.77
2022-12-19T18:58:20.034Z,101740.60
2022-12-19T19:01:43.749Z,101738.32
2022-12-19T19:05:43.555Z,101729.23
2022-12-19T19:09:43.552Z,101727.89
2022-12-19T19:18:25.647Z,101720.30
2022-12-19T19:22:25.698Z,101722.20
2022-12-19T19:26:25.245Z,101709.97
2022-12-19T19:30:24.500Z,101703.27
2022-12-19T19:34:27.419Z,101700.02
2022-12-19T19:38:27.051Z,101685.69
2022-12-19T19:42:44.929Z,101677.17
2022-12-19T19:46:04.254Z,101676.39
2022-12-19T19:50:18.013Z,101672.50
2022-12-19T19:54:17.890Z,101668.63
2022-12-19T19:58:17.271Z,101670.86
2022-12-19T20:02:17.307Z,101658.06
2022-12-19T20:06:16.796Z,101658.55
2022-12-19T20:10:16.479Z,101659.11
2022-12-19T20:14:16.249Z,101656.56
2022-12-19T20:18:16.018Z,101658.15
2022-12-19T20:22:16.155Z,101649.61
2022-12-19T20:26:17.163Z,101646.42
2022-12-19T20:30:18.203Z,101637.85
2022-12-19T20:34:31.583Z,101625.92
2022-12-19T20:38:31.518Z,101619.61
2022-12-19T20:42:31.103Z,101612.06
2022-12-19T20:46:30.786Z,101608.53
2022-12-19T20:50:30.540Z,101607.85
2022-12-19T20:54:29.997Z,101600.45
2022-12-19T20:58:43.335Z,101601.05
2022-12-19T21:03:27.063Z,101593.63
2022-12-19T21:06:20.821Z,101585.42
2022-12-19T21:10:21.006Z,101585.86
2022-12-19T21:14:34.275Z,101577.37
2022-12-19T21:18:34.938Z,101571.55
2022-12-19T21:22:34.274Z,101568.40
2022-12-19T21:26:34.300Z,101558.16
2022-12-19T21:30:33.684Z,101555.05
2022-12-19T21:34:33.053Z,101548.28
2022-12-19T21:38:32.508Z,101539.77
2022-12-19T21:42:31.581Z,101532.98
2022-12-19T21:46:33.409Z,101529.38
2022-12-19T21:50:34.019Z,101521.35
2022-12-19T21:54:33.072Z,101513.88
2022-12-19T21:58:32.622Z,101513.38
2022-12-19T22:02:34.123Z,101510.22
2022-12-19T22:06:15.091Z,101505.96
2022-12-19T22:10:14.426Z,101497.57
2022-12-19T22:14:27.555Z,101490.04
2022-12-19T22:18:27.047Z,101485.28
2022-12-19T22:22:26.321Z,101485.77
2022-12-19T22:26:25.561Z,101478.50
2022-12-19T22:30:24.870Z,101469.65
2022-12-19T22:34:24.435Z,101462.30
2022-12-19T22:38:23.519Z,101460.52
2022-12-19T22:42:23.393Z,101451.11
2022-12-19T22:46:30.158Z,101440.22
2022-12-19T22:50:29.682Z,101435.73
2022-12-19T22:54:29.580Z,101434.48
2022-12-19T22:58:29.727Z,101425.52
2022-12-19T23:02:29.413Z,101429.94
2022-12-19T23:06:31.357Z,101426.64
2022-12-19T23:10:30.805Z,101431.95
2022-12-19T23:14:30.533Z,101430.51
2022-12-19T23:18:44.559Z,101425.62
2022-12-19T23:22:44.039Z,101422.47
2022-12-19T23:26:44.692Z,101419.65
2022-12-19T23:30:43.639Z,101416.02
2022-12-19T23:34:43.009Z,101410.59
2022-12-19T23:38:43.816Z,101406.17
2022-12-19T23:42:43.036Z,101399.21
2022-12-19T23:46:42.592Z,101396.06
2022-12-19T23:50:41.627Z,101389.66
2022-12-19T23:54:40.921Z,101383.11
2022-12-19T23:58:40.911Z,101381.67
